CYTK

Cytokinetics, Incorporated Historical Stock Prices

$6.35
*  
0.17
2.61%
Get CYTK Alerts
*Delayed - data as of Jul. 2, 2015  -  Find a broker to begin trading CYTK now
Exchange: NASDAQ
Industry: Health Care
Community Rating:
View:    CYTK Pre-Market
 
 
Symbol List Views
FlashQuotes InfoQuotes
Stock Details
Summary Quote Real-Time Quote After Hours Quote Pre-market Quote Historical Quote Option Chain
CHARTS
Basic Chart Interactive Chart
COMPANY NEWS
Company Headlines Press Releases Market Stream
STOCK ANALYSIS
Analyst Research Guru Analysis Stock Report Competitors Stock Consultant Stock Comparison
FUNDAMENTALS
Call Transcripts Annual Report Income Statement Revenue/EPS SEC Filings Short Interest Dividend History
HOLDINGS
Ownership Summary Institutional Holdings Insiders
(SEC Form 4)
 Save Stocks

Get up to 10 years of daily historical stock prices & volumes.

Select the Timeframe:

Results for: 3 Month, From 03-APR-2015 TO 03-JUL-2015

Date Open High "High" is the highest sales price the stock has achieved during the regular trading hours, the intra-day high. Low "Low" is the lowest sales price the stock has fallen to during the regular trading hours, the intra-day low. Close / Last "Close" is the period at the end of the trading session. Sometimes used to refer to closing price. Volume "Volume" The closing daily official volumes represented graphically for each trading day.
16:00  6.53  6.55  6.31  6.35 367,636
07/02/2015 6.53 6.55 6.31 6.35 367,636
07/01/2015 6.74 6.76 6.45 6.52 210,513
06/30/2015 6.47 6.75 6.39 6.72 192,623
06/29/2015 6.48 6.75 6.33 6.38 254,088
06/26/2015 6.63 6.66 6.4301 6.6 915,836
06/25/2015 6.65 6.72 6.53 6.64 156,668
06/24/2015 6.72 6.75 6.54 6.61 118,505
06/23/2015 6.71 6.81 6.59 6.74 153,589
06/22/2015 6.54 6.75 6.52 6.69 216,442
06/19/2015 6.46 6.7 6.46 6.51 317,713
06/18/2015 6.33 6.66 6.3 6.45 253,107
06/17/2015 6.32 6.41 6.21 6.31 103,157
06/16/2015 6.22 6.36 6.18 6.27 133,628
06/15/2015 6.39 6.39 6.11 6.25 306,508
06/12/2015 6.49 6.56 6.3401 6.47 154,469
06/11/2015 6.58 6.59 6.45 6.52 130,452
06/10/2015 6.53 6.68 6.39 6.48 235,216
06/09/2015 6.52 6.61 6.36 6.51 230,036
06/08/2015 6.53 6.63 6.43 6.6 181,479
06/05/2015 6.3 6.56 6.2 6.53 236,194
06/04/2015 6.39 6.45 6.17 6.31 236,245
06/03/2015 6.35 6.58 6.2184 6.47 227,398
06/02/2015 6.23 6.47 6.1 6.31 208,804
06/01/2015 6.35 6.48 6.2 6.28 231,702
05/29/2015 6.23 6.53 6.2 6.37 293,202
05/28/2015 6.26 6.35 6.16 6.26 153,361
05/27/2015 6.1 6.3 6.04 6.3 134,183
05/26/2015 6.16 6.18 6.02 6.09 186,806
05/22/2015 6.28 6.28 6.11 6.22 230,688
05/21/2015 6.23 6.31 6.1 6.27 260,235
05/20/2015 6.12 6.4168 6.05 6.21 400,810
05/19/2015 6.26 6.28 5.97 6.12 264,680
05/18/2015 5.9 6.28 5.85 6.26 296,929
05/15/2015 6.03 6.06 5.8 5.96 207,393
05/14/2015 6.18 6.18 5.81 6.02 416,949
05/13/2015 6.56 6.59 6.1 6.19 365,297
05/12/2015 6.63 6.7 6.34 6.51 507,915
05/11/2015 6.46 6.86 6.45 6.65 500,969
05/08/2015 6.1 6.48 6.01 6.38 530,639
05/07/2015 5.72 6.07 5.64 5.99 379,825
05/06/2015 5.51 5.82 5.51 5.7 349,793
05/05/2015 5.63 5.71 5.5 5.51 482,706
05/04/2015 5.62 5.98 5.56 5.68 385,730
05/01/2015 6.08 6.2 5.505 5.65 1,034,420
04/30/2015 6.67 6.92 6.07 6.29 663,713
04/29/2015 6.83 6.94 6.65 6.7 157,116
04/28/2015 6.86 7.01 6.56 6.85 298,166
04/27/2015 7.25 7.32 6.76 6.83 496,391
04/24/2015 7.4 7.43 7.23 7.25 160,961
04/23/2015 7.28 7.45 7.12 7.43 205,561
04/22/2015 7.45 7.59 7.2 7.29 277,025
04/21/2015 7.2 7.49 6.97 7.38 534,509
04/20/2015 6.98 7.15 6.736 7.12 208,719
04/17/2015 7.03 7.13 6.81 6.95 395,734
04/16/2015 7.12 7.2 7.01 7.13 135,335
04/15/2015 7.27 7.28 7.01 7.17 226,163
04/14/2015 7.12 7.3149 7.12 7.19 179,880
04/13/2015 7.24 7.27 7.11 7.12 201,866
04/10/2015 7.1 7.35 7.02 7.26 187,439
04/09/2015 7.14 7.24 6.85 7.07 255,648
04/08/2015 7 7.19 6.93 7.12 258,267
04/07/2015 6.95 7.2499 6.91 6.99 261,856
04/06/2015 7 7.19 6.9203 6.97 224,905
*This data reflects the latest intra-day delayed pricing.
Download Excel icon Download this file in Excel Format

Research Brokers before you trade

Want to trade FX?